Pella, Idaho
Current Conditions -  °F | °C
As of 8:53 PM on Monday 22 Dec 2014 (Local Time) from KBYI Reporting Station
Clear Clear  
Wind Chill: -5°   Ceiling: Unl
Heat Index:   Visibility: 10mi
Dew Point: -3°   Wind: 14mph
Humidity: 75%   Direction: 290°WNW
Pressure: 30.22"   Gusts: NA
Location:  42.5011°N, 113.814°W
Report Text: KBYI 230353Z AUTO 29012KT 10SM CLR 01/M03 A3022 RMK AO2 SLP244 T00061033
Loading
Personal Weather Stations






























Interactive Weather Map New forecast layout! Learn more

10-Day Weather Forecast

Advertisements
Track Severe Weather on mobile